Adelphia, New Jersey
Current Conditions -  °F | °C
As of 12:55 PM on Friday 21 Nov 2014 (Local Time) from KBLM Reporting Station
Clear Clear  
Wind Chill: 26°   Ceiling: Unl
Heat Index: 36°   Visibility: 10mi
Dew Point:   Wind: 15mph
Humidity: 33%   Direction: 290°WNW
Pressure: 30.31"   Gusts: NA
Location:  40.22°N, 74.26°W
Report Text: KBLM 211755Z AUTO 29013KT 10SM CLR 02/M13 A3031 RMK AO1 10020 21030 52003
Loading
Personal Weather Stations






























Interactive Weather Map New forecast layout! Learn more

10-Day Weather Forecast

Advertisements
Track Severe Weather on mobile